Time;durP1;ratioP1;P1;durP2;ratioP2;P2;SDS_P1;SDS_P2;PMS_P1;PMS_P2;Temp;Humidity;BMP_temperature;BMP_pressure;BME280_temperature;BME280_humidity;BME280_pressure;Samples;Min_cycle;Max_cycle;Signal;HPM_P1;HPM_P2
2022/01/22 00:01:09;;;;;;;6.70;2.95;;;7.30;99.90;;;;;;5067221;28;20048;-78
2022/01/22 00:03:35;;;;;;;8.77;3.55;;;7.30;99.90;;;;;;5066559;28;20048;-78
2022/01/22 00:06:01;;;;;;;11.80;3.78;;;7.30;99.90;;;;;;5067260;28;20052;-78
2022/01/22 00:08:27;;;;;;;5.28;2.45;;;7.30;99.90;;;;;;5030828;28;20041;-78
2022/01/22 00:10:52;;;;;;;7.32;2.67;;;7.30;99.90;;;;;;5034025;28;20052;-79
2022/01/22 00:15:51;;;;;;;7.50;2.80;;;7.30;99.90;;;;;;5036386;28;20896;-78
2022/01/22 00:18:16;;;;;;;8.45;2.75;;;7.40;99.90;;;;;;5036185;28;20127;-79
2022/01/22 00:20:42;;;;;;;7.68;2.92;;;7.40;99.90;;;;;;5034911;28;20072;-79
2022/01/22 00:23:07;;;;;;;4.85;2.40;;;7.30;99.90;;;;;;5035291;28;20056;-78
2022/01/22 00:25:33;;;;;;;6.95;2.75;;;7.30;99.90;;;;;;5034881;28;20045;-78
2022/01/22 00:28:00;;;;;;;7.07;1.90;;;7.30;99.90;;;;;;5036858;28;20056;-78
2022/01/22 00:30:27;;;;;;;10.95;3.17;;;7.30;99.90;;;;;;5035592;28;20045;-78
2022/01/22 00:32:54;;;;;;;8.07;3.17;;;7.30;99.90;;;;;;5034562;28;20088;-77
2022/01/22 00:35:21;;;;;;;10.05;3.25;;;7.30;99.90;;;;;;5035279;28;20090;-78
2022/01/22 00:37:49;;;;;;;6.38;2.30;;;7.30;99.90;;;;;;5034923;28;20429;-78
2022/01/22 00:40:16;;;;;;;7.57;2.92;;;7.30;99.90;;;;;;5035081;28;20083;-77
2022/01/22 00:42:43;;;;;;;7.72;2.35;;;7.40;99.90;;;;;;5035001;28;20076;-78
2022/01/22 00:45:10;;;;;;;8.65;2.10;;;7.40;99.90;;;;;;5035722;28;20072;-78
2022/01/22 00:47:36;;;;;;;8.23;2.67;;;7.40;99.90;;;;;;5035622;28;21013;-77
2022/01/22 00:50:03;;;;;;;7.72;3.17;;;7.40;99.90;;;;;;5034876;28;20905;-78
2022/01/22 00:52:28;;;;;;;6.63;2.47;;;7.40;99.90;;;;;;5035344;28;20087;-78
2022/01/22 00:54:54;;;;;;;9.18;2.80;;;7.40;99.90;;;;;;5037307;28;20136;-77
2022/01/22 00:57:19;;;;;;;7.25;2.85;;;7.40;99.90;;;;;;5036841;28;20092;-77
2022/01/22 00:59:45;;;;;;;5.15;2.42;;;7.40;99.90;;;;;;5035118;28;20052;-77
2022/01/22 01:02:10;;;;;;;3.40;1.92;;;7.40;99.90;;;;;;5032530;28;20290;-78
2022/01/22 01:04:37;;;;;;;6.45;2.55;;;7.40;99.90;;;;;;5035228;28;20143;-77
2022/01/22 01:07:04;;;;;;;5.70;1.55;;;7.40;99.90;;;;;;5035708;28;20484;-77
2022/01/22 01:09:31;;;;;;;7.35;1.80;;;7.40;99.90;;;;;;5035524;28;20045;-78
2022/01/22 01:12:01;;;;;;;3.42;1.17;;;7.40;99.90;;;;;;5037280;28;20875;-78
2022/01/22 01:14:37;;;;;;;5.53;1.55;;;7.40;99.90;;;;;;5035525;28;20045;-78
2022/01/22 01:33:24;;;;;;;4.78;1.85;;;7.40;99.90;;;;;;5041230;28;20152;-78
2022/01/22 01:35:50;;;;;;;6.95;1.92;;;7.40;99.90;;;;;;5030609;28;20484;-78
2022/01/22 01:38:19;;;;;;;4.03;1.58;;;7.40;99.90;;;;;;5040374;28;20190;-77
2022/01/22 01:40:52;;;;;;;8.27;2.53;;;7.40;99.90;;;;;;5038615;28;20048;-78
2022/01/22 01:43:24;;;;;;;8.98;2.65;;;7.40;99.90;;;;;;5036465;28;20078;-77
2022/01/22 01:45:49;;;;;;;5.78;2.50;;;7.50;99.90;;;;;;5039122;28;20099;-77
2022/01/22 01:48:20;;;;;;;8.45;2.92;;;7.50;99.90;;;;;;5039117;28;20417;-78
2022/01/22 01:50:46;;;;;;;8.00;2.85;;;7.50;99.90;;;;;;5039759;28;20098;-77
2022/01/22 01:53:47;;;;;;;6.72;2.25;;;7.40;99.90;;;;;;5038425;28;20049;-77
2022/01/22 01:57:25;;;;;;;6.70;2.38;;;7.50;99.90;;;;;;5038950;28;20080;-77
2022/01/22 01:58:53;;;;;;;5.05;1.55;;;7.50;99.90;;;;;;5040208;28;20049;-77
2022/01/22 02:01:19;;;;;;;3.78;1.30;;;7.50;99.90;;;;;;5039713;28;20053;-77
2022/01/22 02:03:44;;;;;;;3.72;2.03;;;7.50;99.90;;;;;;5038139;28;20499;-79
2022/01/22 02:06:10;;;;;;;10.45;1.90;;;7.50;99.90;;;;;;5032598;28;20052;-77
2022/01/22 02:08:35;;;;;;;6.70;1.92;;;7.50;99.90;;;;;;5038531;28;20045;-76
2022/01/22 02:11:03;;;;;;;6.20;1.50;;;7.50;99.90;;;;;;5038199;28;20056;-77
2022/01/22 02:24:51;;;;;;;1.67;1.00;;;7.40;99.90;;;;;;5038920;28;20144;-76
2022/01/22 02:27:18;;;;;;;7.85;1.77;;;7.40;99.90;;;;;;5036691;28;20053;-77
2022/01/22 02:29:44;;;;;;;6.82;2.13;;;7.40;99.90;;;;;;5033945;28;20056;-77
2022/01/22 02:35:25;;;;;;;2.13;1.30;;;7.50;99.90;;;;;;5068135;28;20049;-77
2022/01/22 02:37:48;;;;;;;4.55;1.63;;;7.50;99.90;;;;;;5035498;28;20143;-77
2022/01/22 02:40:24;;;;;;;4.43;1.67;;;7.40;99.90;;;;;;5035293;28;20526;-78
2022/01/22 02:42:50;;;;;;;4.35;2.00;;;7.40;99.90;;;;;;5029826;28;20658;-75
2022/01/22 02:45:20;;;;;;;7.95;1.77;;;7.40;99.90;;;;;;5036258;28;20059;-76
2022/01/22 02:47:46;;;;;;;6.82;2.30;;;7.40;99.90;;;;;;5035584;28;20045;-76
2022/01/22 02:50:13;;;;;;;9.10;2.40;;;7.40;99.90;;;;;;5036978;28;20051;-75
2022/01/22 02:52:38;;;;;;;3.08;1.98;;;7.40;99.90;;;;;;5067549;28;20048;-75
2022/01/22 02:55:07;;;;;;;5.93;2.00;;;7.50;99.90;;;;;;5068420;28;20746;-76
2022/01/22 02:57:33;;;;;;;4.18;1.75;;;7.40;99.90;;;;;;5034238;28;20051;-76
2022/01/22 03:00:00;;;;;;;5.75;1.63;;;7.40;99.90;;;;;;5035848;28;20060;-75
2022/01/22 03:02:26;;;;;;;5.68;1.50;;;7.40;99.90;;;;;;5036297;28;20060;-76
2022/01/22 03:04:51;;;;;;;4.65;2.30;;;7.40;99.90;;;;;;5032465;28;20048;-75
2022/01/22 03:07:17;;;;;;;4.25;1.88;;;7.40;99.90;;;;;;5034751;28;20045;-75
2022/01/22 03:09:45;;;;;;;2.00;1.08;;;7.40;99.90;;;;;;5035164;28;20033;-75
2022/01/22 03:12:29;;;;;;;5.22;1.73;;;7.40;99.90;;;;;;5028675;28;20044;-76
2022/01/22 03:20:33;;;;;;;2.92;1.80;;;7.40;99.90;;;;;;5065144;28;20045;-76
2022/01/22 03:23:05;;;;;;;5.00;1.90;;;7.40;99.90;;;;;;5028541;28;20056;-75
2022/01/22 03:28:19;;;;;;;5.65;1.92;;;7.40;99.90;;;;;;5033875;28;20087;-75
2022/01/22 03:30:45;;;;;;;2.30;1.13;;;7.40;99.90;;;;;;5066785;28;20053;-74
2022/01/22 03:33:13;;;;;;;8.75;1.70;;;7.40;99.90;;;;;;5017629;28;20076;-75
2022/01/22 03:35:44;;;;;;;2.45;1.33;;;7.30;99.90;;;;;;5031073;28;20073;-75
2022/01/22 03:38:10;;;;;;;3.22;1.15;;;7.40;99.90;;;;;;5068048;28;20096;-75
2022/01/22 03:40:35;;;;;;;6.38;1.88;;;7.30;99.90;;;;;;5033530;28;20056;-75
2022/01/22 03:43:01;;;;;;;3.05;1.33;;;7.30;99.90;;;;;;5033595;28;20558;-75
2022/01/22 03:45:27;;;;;;;2.08;1.40;;;7.40;99.90;;;;;;5034095;28;20060;-75
2022/01/22 03:47:52;;;;;;;2.95;1.27;;;7.40;99.90;;;;;;5033182;28;20041;-75
2022/01/22 03:50:19;;;;;;;5.95;2.40;;;7.30;99.90;;;;;;5035341;28;20726;-76
2022/01/22 03:52:45;;;;;;;1.75;1.40;;;7.40;99.90;;;;;;5064381;28;20115;-75
2022/01/22 03:55:21;;;;;;;3.83;1.40;;;7.40;99.90;;;;;;5066890;28;20045;-75
2022/01/22 03:57:47;;;;;;;4.75;1.67;;;7.40;99.90;;;;;;5032241;28;20497;-75
2022/01/22 04:00:13;;;;;;;4.05;1.48;;;7.40;99.90;;;;;;5034316;28;20045;-75
2022/01/22 04:05:10;;;;;;;2.45;1.15;;;7.40;99.90;;;;;;5033253;28;20053;-76
2022/01/22 04:10:09;;;;;;;3.22;1.35;;;7.40;99.90;;;;;;5035347;28;20044;-75
2022/01/22 04:15:22;;;;;;;1.77;1.38;;;7.40;99.90;;;;;;5037155;28;20053;-75
2022/01/22 04:25:48;;;;;;;3.63;1.40;;;7.40;99.90;;;;;;5035816;28;20531;-76
2022/01/22 04:28:14;;;;;;;5.10;2.00;;;7.40;99.90;;;;;;5035830;28;20052;-77
2022/01/22 04:30:39;;;;;;;2.70;1.00;;;7.40;99.90;;;;;;5034724;28;20535;-76
2022/01/22 04:33:05;;;;;;;1.80;1.10;;;7.40;99.90;;;;;;5035029;28;20161;-77
2022/01/22 04:35:32;;;;;;;1.45;1.13;;;7.40;99.90;;;;;;5036266;28;20045;-77
2022/01/22 04:37:57;;;;;;;2.08;1.13;;;7.40;99.90;;;;;;5035361;28;20061;-76
2022/01/22 04:40:23;;;;;;;2.40;1.40;;;7.40;99.90;;;;;;5035986;28;20056;-76
2022/01/22 04:42:49;;;;;;;4.50;1.48;;;7.30;99.90;;;;;;5036014;28;20045;-76
2022/01/22 04:45:26;;;;;;;2.55;1.27;;;7.40;99.90;;;;;;5036148;28;20052;-77
2022/01/22 04:48:24;;;;;;;1.85;1.08;;;7.30;99.90;;;;;;5036087;28;20057;-76
2022/01/22 04:55:47;;;;;;;1.92;1.13;;;7.30;99.90;;;;;;5036903;28;20057;-76
2022/01/22 04:58:13;;;;;;;1.48;1.15;;;7.30;99.90;;;;;;5037536;28;20057;-76
2022/01/22 05:00:41;;;;;;;4.43;1.50;;;7.30;99.90;;;;;;5039189;28;20103;-76
2022/01/22 05:03:07;;;;;;;5.13;1.70;;;7.30;99.90;;;;;;5040456;28;20053;-76
2022/01/22 05:05:33;;;;;;;4.97;1.23;;;7.30;99.90;;;;;;5040509;28;21003;-76
2022/01/22 05:07:59;;;;;;;1.52;1.20;;;7.30;99.90;;;;;;5040132;28;20049;-76
2022/01/22 05:10:25;;;;;;;3.17;1.25;;;7.30;99.90;;;;;;5038957;28;20690;-76
2022/01/22 05:12:52;;;;;;;2.63;1.23;;;7.30;99.90;;;;;;5039130;28;20060;-76
2022/01/22 05:15:19;;;;;;;2.92;1.13;;;7.30;99.90;;;;;;5040405;28;20085;-75
2022/01/22 05:17:45;;;;;;;3.05;1.00;;;7.30;99.90;;;;;;5039900;28;20758;-76
2022/01/22 05:20:42;;;;;;;1.85;0.85;;;7.40;99.90;;;;;;5039858;28;20064;-76
2022/01/22 05:23:09;;;;;;;2.00;0.90;;;7.30;99.90;;;;;;5040954;28;20053;-75
2022/01/22 05:25:41;;;;;;;4.05;1.55;;;7.30;99.90;;;;;;5039777;28;20060;-75
2022/01/22 05:30:55;;;;;;;2.58;1.10;;;7.30;99.90;;;;;;5040595;28;20140;-75
2022/01/22 05:36:54;;;;;;;2.38;2.08;;;7.30;99.90;;;;;;5040011;28;20092;-76
2022/01/22 05:39:10;;;;;;;4.72;1.15;;;7.30;99.90;;;;;;5036649;28;20061;-77
2022/01/22 05:41:40;;;;;;;2.05;1.00;;;7.30;99.90;;;;;;5033733;28;20087;-76
2022/01/22 05:44:06;;;;;;;3.38;1.20;;;7.30;99.90;;;;;;5038248;28;20512;-76
2022/01/22 05:46:32;;;;;;;2.20;1.17;;;7.30;99.90;;;;;;5038813;28;20130;-77
2022/01/22 05:48:57;;;;;;;4.45;1.40;;;7.30;99.90;;;;;;5038855;28;20045;-76
2022/01/22 05:51:23;;;;;;;4.57;2.28;;;7.30;99.90;;;;;;5038152;28;20064;-76
2022/01/22 05:54:15;;;;;;;3.08;2.15;;;7.30;99.90;;;;;;5040339;28;20748;-75
2022/01/22 05:59:38;;;;;;;3.53;1.80;;;7.30;99.90;;;;;;5040028;28;20075;-75
2022/01/22 06:02:08;;;;;;;7.00;2.35;;;7.40;99.90;;;;;;5039456;28;20075;-75
2022/01/22 06:04:35;;;;;;;4.45;1.45;;;7.40;99.90;;;;;;5039774;28;20132;-75
2022/01/22 06:07:04;;;;;;;4.18;2.08;;;7.30;99.90;;;;;;5038195;28;20740;-75
2022/01/22 06:09:32;;;;;;;6.55;1.63;;;7.40;99.90;;;;;;5036985;28;20092;-75
2022/01/22 06:12:14;;;;;;;4.38;1.48;;;7.40;99.90;;;;;;5038765;28;20634;-75
2022/01/22 06:14:39;;;;;;;4.53;1.85;;;7.40;99.90;;;;;;5038404;28;20057;-74
2022/01/22 06:17:05;;;;;;;3.08;2.33;;;7.40;99.90;;;;;;5039485;28;20059;-75
2022/01/22 06:19:30;;;;;;;2.95;2.05;;;7.30;99.90;;;;;;5039573;28;20045;-74
2022/01/22 06:21:56;;;;;;;3.83;2.28;;;7.40;99.90;;;;;;5038028;28;20137;-75
2022/01/22 06:24:23;;;;;;;11.13;1.80;;;7.30;99.90;;;;;;5037357;28;20079;-75
2022/01/22 06:26:49;;;;;;;5.45;1.65;;;7.30;99.90;;;;;;5037783;28;20090;-75
2022/01/22 06:29:15;;;;;;;4.32;1.70;;;7.40;99.90;;;;;;5037869;28;20724;-74
2022/01/22 06:31:41;;;;;;;6.88;1.83;;;7.30;99.90;;;;;;5037780;28;20040;-74
2022/01/22 06:34:08;;;;;;;4.22;2.28;;;7.30;99.90;;;;;;5038512;28;20870;-74
2022/01/22 06:36:33;;;;;;;7.40;2.63;;;7.30;99.90;;;;;;5039355;28;20056;-75
2022/01/22 06:39:11;;;;;;;2.65;1.80;;;7.30;99.90;;;;;;5038998;28;20534;-75
2022/01/22 06:41:44;;;;;;;14.05;2.13;;;7.30;99.90;;;;;;5039016;28;20067;-77
2022/01/22 06:44:22;;;;;;;6.28;1.77;;;7.30;99.90;;;;;;5037140;28;20446;-77
2022/01/22 06:46:54;;;;;;;2.22;1.50;;;7.30;99.90;;;;;;5039134;28;20094;-76
2022/01/22 06:49:20;;;;;;;3.95;1.45;;;7.30;99.90;;;;;;5038101;28;20757;-76
2022/01/22 06:51:46;;;;;;;3.08;1.58;;;7.30;99.90;;;;;;5037458;28;20045;-77
2022/01/22 06:54:14;;;;;;;4.22;1.60;;;7.30;99.90;;;;;;5039976;28;20044;-76
2022/01/22 06:56:40;;;;;;;5.18;1.95;;;7.30;99.90;;;;;;5039656;28;20045;-78
2022/01/22 06:59:08;;;;;;;5.93;1.73;;;7.30;99.90;;;;;;5039017;28;20515;-77
2022/01/22 07:01:34;;;;;;;4.85;1.52;;;7.30;99.90;;;;;;5037279;28;20582;-76
2022/01/22 07:04:00;;;;;;;4.32;2.40;;;7.30;99.90;;;;;;5039557;28;20168;-77
2022/01/22 07:06:26;;;;;;;2.97;1.35;;;7.20;99.90;;;;;;5038712;28;20049;-75
2022/01/22 07:08:51;;;;;;;1.88;1.67;;;7.20;99.90;;;;;;5038229;28;20045;-75
2022/01/22 07:11:17;;;;;;;2.08;1.83;;;7.20;99.90;;;;;;5039484;28;20103;-76
2022/01/22 07:13:43;;;;;;;1.60;1.15;;;7.20;99.90;;;;;;5038288;28;20045;-75
2022/01/22 07:16:08;;;;;;;3.80;1.30;;;7.20;99.90;;;;;;5038102;28;20485;-76
2022/01/22 07:18:35;;;;;;;3.33;1.42;;;7.20;99.90;;;;;;5038960;28;20081;-76
2022/01/22 07:21:17;;;;;;;3.63;1.25;;;7.20;99.90;;;;;;5036588;28;20152;-76
2022/01/22 07:26:15;;;;;;;2.17;1.90;;;7.20;99.90;;;;;;5036831;28;20139;-75
2022/01/22 07:28:41;;;;;;;3.08;1.38;;;7.20;99.90;;;;;;5038484;28;20456;-75
2022/01/22 07:31:08;;;;;;;3.65;1.27;;;7.10;99.90;;;;;;5037303;28;20552;-75
2022/01/22 07:33:34;;;;;;;1.55;1.23;;;7.20;99.90;;;;;;5034457;28;20125;-74
2022/01/22 07:36:00;;;;;;;1.17;1.00;;;7.20;99.90;;;;;;5036103;28;20102;-75
2022/01/22 07:38:26;;;;;;;1.42;0.90;;;7.20;99.90;;;;;;5035111;28;20045;-76
2022/01/22 07:40:52;;;;;;;2.83;1.30;;;7.10;99.90;;;;;;5034863;28;20063;-76
2022/01/22 07:43:17;;;;;;;1.33;1.13;;;7.20;99.90;;;;;;5035428;28;20061;-76
2022/01/22 07:45:43;;;;;;;3.15;1.50;;;7.10;99.90;;;;;;5032530;28;20060;-76
2022/01/22 07:48:09;;;;;;;3.67;2.03;;;7.10;99.90;;;;;;5063748;28;20049;-76
2022/01/22 07:50:34;;;;;;;3.50;1.38;;;7.20;99.90;;;;;;5067233;28;20045;-75
2022/01/22 07:53:01;;;;;;;3.80;1.30;;;7.20;99.90;;;;;;5034284;28;20048;-76
2022/01/22 07:55:28;;;;;;;2.88;1.20;;;7.20;99.90;;;;;;5034209;28;20049;-77
2022/01/22 07:57:53;;;;;;;9.32;1.63;;;7.10;99.90;;;;;;5061323;28;20052;-77
2022/01/22 08:00:19;;;;;;;3.55;1.35;;;7.10;99.90;;;;;;5066484;28;20781;-77
2022/01/22 08:02:45;;;;;;;1.55;1.40;;;7.10;99.90;;;;;;5032223;28;20067;-77
2022/01/22 08:05:11;;;;;;;2.47;1.13;;;7.10;99.90;;;;;;5068490;28;20056;-76
2022/01/22 08:07:38;;;;;;;4.28;1.60;;;7.10;99.90;;;;;;5034575;28;20487;-76
2022/01/22 08:10:08;;;;;;;2.50;1.40;;;7.10;99.90;;;;;;5027149;28;20040;-75
2022/01/22 08:12:35;;;;;;;2.20;1.42;;;7.10;99.90;;;;;;5029790;28;20051;-75
2022/01/22 08:15:01;;;;;;;1.60;1.20;;;7.10;99.90;;;;;;5027250;28;20037;-75
2022/01/22 08:17:26;;;;;;;1.88;1.20;;;7.10;99.90;;;;;;5028150;28;20051;-74
2022/01/22 08:19:53;;;;;;;2.42;0.90;;;7.10;99.90;;;;;;5030334;28;20052;-76
2022/01/22 08:22:19;;;;;;;0.70;0.70;;;7.10;99.90;;;;;;5033584;28;20144;-75
2022/01/22 08:24:45;;;;;;;2.78;1.30;;;7.10;99.90;;;;;;5031270;28;20044;-75
2022/01/22 08:29:36;;;;;;;2.55;1.05;;;7.10;99.90;;;;;;5034120;28;20056;-76
2022/01/22 08:32:09;;;;;;;3.05;1.10;;;7.10;99.90;;;;;;5064534;28;20045;-75
2022/01/22 08:37:20;;;;;;;2.33;1.52;;;7.10;99.90;;;;;;5068139;28;20140;-75
2022/01/22 08:39:45;;;;;;;4.00;1.27;;;7.10;99.90;;;;;;5038820;28;20044;-75
2022/01/22 08:42:11;;;;;;;3.63;1.23;;;7.20;99.90;;;;;;5038576;28;20666;-75
2022/01/22 08:44:36;;;;;;;4.10;1.30;;;7.20;99.90;;;;;;5036555;28;20790;-74
2022/01/22 08:47:02;;;;;;;2.00;1.45;;;7.20;99.90;;;;;;5039094;28;20051;-76
2022/01/22 08:49:28;;;;;;;3.55;1.55;;;7.20;99.90;;;;;;5041507;28;20122;-75
2022/01/22 08:51:54;;;;;;;1.50;1.20;;;7.30;99.90;;;;;;5039053;28;20049;-76
2022/01/22 08:54:21;;;;;;;4.70;1.20;;;7.30;99.90;;;;;;5038769;28;20061;-75
2022/01/22 08:56:46;;;;;;;3.50;1.60;;;7.30;99.90;;;;;;5038739;28;20614;-76
2022/01/22 08:59:12;;;;;;;4.20;1.65;;;7.30;99.90;;;;;;5038999;28;20045;-75
2022/01/22 09:01:39;;;;;;;1.45;1.33;;;7.40;99.90;;;;;;5038886;28;20772;-75
2022/01/22 09:04:05;;;;;;;6.22;1.77;;;7.40;99.90;;;;;;5036488;28;20063;-75
2022/01/22 09:06:31;;;;;;;1.70;1.38;;;7.40;99.90;;;;;;5035382;28;20033;-76
2022/01/22 09:09:09;;;;;;;3.33;1.20;;;7.50;99.90;;;;;;5037345;28;20475;-75
2022/01/22 09:11:35;;;;;;;2.65;1.33;;;7.50;99.90;;;;;;5031679;28;20048;-75
2022/01/22 09:14:02;;;;;;;3.80;1.50;;;7.50;99.90;;;;;;5034619;28;20049;-76
2022/01/22 09:16:28;;;;;;;1.67;1.58;;;7.50;99.90;;;;;;5035475;28;20484;-76
2022/01/22 09:18:54;;;;;;;4.13;1.58;;;7.60;99.90;;;;;;5068592;28;20102;-76
2022/01/22 09:21:20;;;;;;;3.03;1.60;;;7.50;99.90;;;;;;5038755;28;20093;-76
2022/01/22 09:23:45;;;;;;;5.43;1.50;;;7.60;99.90;;;;;;5069194;28;20048;-75
2022/01/22 09:26:11;;;;;;;2.67;1.60;;;7.60;99.90;;;;;;5071589;28;20130;-75
2022/01/22 09:28:37;;;;;;;3.90;1.65;;;7.60;99.90;;;;;;5037299;28;20068;-76
2022/01/22 09:31:04;;;;;;;3.80;1.70;;;7.70;99.90;;;;;;5039988;28;20048;-76
2022/01/22 09:33:30;;;;;;;5.03;1.55;;;7.70;99.90;;;;;;5039287;28;20083;-79
2022/01/22 09:35:55;;;;;;;7.85;2.45;;;7.70;99.90;;;;;;5041129;28;20033;-76
2022/01/22 09:38:22;;;;;;;4.60;2.20;;;7.70;99.90;;;;;;5039639;28;20103;-75
2022/01/22 09:40:47;;;;;;;2.80;1.50;;;7.60;99.90;;;;;;5039479;28;20136;-76
2022/01/22 09:43:13;;;;;;;9.80;2.03;;;7.60;99.90;;;;;;5039191;28;20427;-76
2022/01/22 09:45:39;;;;;;;2.72;1.20;;;7.60;99.90;;;;;;5069104;28;20055;-76
2022/01/22 09:48:06;;;;;;;2.65;0.93;;;7.60;99.90;;;;;;5038508;28;20460;-76
2022/01/22 09:50:33;;;;;;;1.67;0.98;;;7.60;99.90;;;;;;5070581;28;20139;-76
2022/01/22 09:52:58;;;;;;;2.70;1.23;;;7.60;99.90;;;;;;5036822;28;20545;-76
2022/01/22 09:55:24;;;;;;;3.58;1.60;;;7.60;99.90;;;;;;5037799;28;20053;-76
2022/01/22 09:57:53;;;;;;;4.00;1.63;;;7.70;99.90;;;;;;5035654;28;20059;-77
2022/01/22 10:00:19;;;;;;;5.70;1.60;;;7.70;99.90;;;;;;5033745;28;20049;-76
2022/01/22 10:02:48;;;;;;;1.55;1.23;;;7.70;99.90;;;;;;5037375;28;20045;-76
2022/01/22 10:05:37;;;;;;;5.95;1.50;;;7.70;99.90;;;;;;5036107;28;20048;-77
2022/01/22 10:08:28;;;;;;;3.60;2.58;;;7.70;99.90;;;;;;5036060;28;20056;-78
2022/01/22 10:10:56;;;;;;;2.95;1.83;;;7.80;99.90;;;;;;5037641;28;20088;-78
2022/01/22 10:13:43;;;;;;;6.63;1.60;;;7.80;99.90;;;;;;5037538;28;20168;-79
2022/01/22 10:16:23;;;;;;;5.47;1.75;;;7.80;99.90;;;;;;5069450;28;20115;-80
2022/01/22 10:19:16;;;;;;;4.07;1.60;;;7.90;99.90;;;;;;5037692;28;20052;-80
2022/01/22 10:21:52;;;;;;;4.40;2.27;;;7.90;99.90;;;;;;5031161;28;20147;-80
2022/01/22 10:24:44;;;;;;;3.72;2.38;;;7.90;99.90;;;;;;5033752;28;20778;-81
2022/01/22 10:27:35;;;;;;;2.78;2.08;;;8.00;99.90;;;;;;5037593;28;20316;-80
2022/01/22 10:30:16;;;;;;;5.93;1.85;;;7.90;99.90;;;;;;5069255;28;20115;-80
2022/01/22 10:32:57;;;;;;;3.38;2.22;;;7.90;99.90;;;;;;5037720;28;20354;-79
2022/01/22 10:35:25;;;;;;;3.83;1.30;;;8.00;99.90;;;;;;5069540;28;20083;-79
2022/01/22 10:37:57;;;;;;;4.60;1.88;;;8.00;99.90;;;;;;5034595;28;20745;-78
2022/01/22 10:40:28;;;;;;;2.80;1.58;;;8.10;99.90;;;;;;5069266;28;20206;-79
2022/01/22 10:43:11;;;;;;;2.75;1.50;;;8.10;99.90;;;;;;5066184;28;20159;-78
2022/01/22 10:45:40;;;;;;;3.93;1.63;;;8.10;99.90;;;;;;5035422;28;20062;-78
2022/01/22 10:48:22;;;;;;;4.65;1.80;;;8.10;99.90;;;;;;5031218;28;20294;-79
2022/01/22 10:51:09;;;;;;;4.05;2.20;;;8.10;99.90;;;;;;5035059;28;20049;-78
2022/01/22 10:53:43;;;;;;;2.92;1.70;;;8.10;99.90;;;;;;5029997;28;20423;-79
2022/01/22 10:56:12;;;;;;;3.05;1.38;;;8.10;99.90;;;;;;5068421;28;20546;-78
2022/01/22 10:58:55;;;;;;;4.38;1.58;;;8.10;99.90;;;;;;5069525;28;20163;-76
2022/01/22 11:01:24;;;;;;;1.30;1.20;;;8.10;99.90;;;;;;5070303;28;20148;-79
2022/01/22 11:04:02;;;;;;;3.17;2.05;;;8.10;99.90;;;;;;5034890;28;20624;-78
2022/01/22 11:06:28;;;;;;;3.30;2.28;;;8.10;99.90;;;;;;5033969;28;20056;-78
2022/01/22 11:08:54;;;;;;;1.50;1.38;;;8.10;99.90;;;;;;5033375;28;20098;-76
2022/01/22 11:11:21;;;;;;;3.67;1.90;;;8.10;99.90;;;;;;5031483;28;20155;-77
2022/01/22 11:13:47;;;;;;;3.17;1.80;;;8.00;99.90;;;;;;5031519;28;20067;-77
2022/01/22 11:16:13;;;;;;;5.97;2.13;;;8.10;99.90;;;;;;5032687;28;20743;-77
2022/01/22 11:18:43;;;;;;;8.48;1.85;;;8.10;99.90;;;;;;5029305;28;20799;-76
2022/01/22 11:21:10;;;;;;;3.40;1.80;;;8.00;99.90;;;;;;5030702;28;20041;-77
2022/01/22 11:23:35;;;;;;;6.68;1.90;;;8.00;99.90;;;;;;5067705;28;20139;-77
2022/01/22 11:26:02;;;;;;;4.55;2.05;;;8.00;99.90;;;;;;5033488;28;20052;-77
2022/01/22 11:28:28;;;;;;;8.73;2.08;;;8.10;99.90;;;;;;5035457;28;20040;-77
2022/01/22 11:30:56;;;;;;;3.00;1.85;;;8.10;99.90;;;;;;5036259;28;20048;-76
2022/01/22 11:33:24;;;;;;;6.03;2.40;;;8.10;99.90;;;;;;5028912;28;20511;-77
2022/01/22 11:36:00;;;;;;;5.40;3.05;;;8.10;99.90;;;;;;5020590;28;20040;-76
2022/01/22 11:38:36;;;;;;;11.80;3.38;;;8.10;99.90;;;;;;5034712;28;20818;-76
2022/01/22 11:41:15;;;;;;;4.50;2.13;;;8.20;99.90;;;;;;5034088;28;20505;-76
2022/01/22 11:44:15;;;;;;;3.38;2.30;;;8.20;99.90;;;;;;5034323;28;20385;-75
2022/01/22 11:46:45;;;;;;;3.25;1.65;;;8.20;99.90;;;;;;5033876;28;20059;-76
2022/01/22 11:49:18;;;;;;;2.58;1.60;;;8.20;99.90;;;;;;5035870;28;20103;-75
2022/01/22 11:51:46;;;;;;;;;;;8.20;99.90;;;;;;5034027;28;20045;-76
2022/01/22 11:54:13;;;;;;;4.00;2.13;;;8.20;99.90;;;;;;5034519;28;19929;-76
2022/01/22 11:56:44;;;;;;;6.10;2.22;;;8.20;99.90;;;;;;5033993;28;20139;-77
2022/01/22 11:59:23;;;;;;;10.77;2.42;;;8.20;99.90;;;;;;5035002;28;20779;-79
2022/01/22 12:01:51;;;;;;;9.95;2.53;;;8.20;99.90;;;;;;5033668;28;20124;-80
2022/01/22 12:04:20;;;;;;;6.95;2.55;;;8.20;99.90;;;;;;5034874;28;20045;-79
2022/01/22 12:07:19;;;;;;;6.30;3.33;;;8.20;99.90;;;;;;5032005;28;20064;-80
2022/01/22 12:09:53;;;;;;;7.63;3.33;;;8.20;99.90;;;;;;5030657;28;20098;-79
2022/01/22 12:15:18;;;;;;;10.32;3.67;;;8.10;99.90;;;;;;5067893;28;20053;-79
2022/01/22 12:17:46;;;;;;;8.50;3.47;;;8.10;99.90;;;;;;5034132;28;20103;-79
2022/01/22 12:23:13;;;;;;;9.13;2.97;;;8.10;99.90;;;;;;5035540;28;20232;-81
2022/01/22 12:25:39;;;;;;;4.53;2.40;;;8.10;99.90;;;;;;5035544;28;20138;-80
2022/01/22 12:28:06;;;;;;;12.48;3.22;;;8.10;99.90;;;;;;5027718;28;20985;-80
2022/01/22 12:30:39;;;;;;;8.32;3.83;;;8.10;99.90;;;;;;5063926;28;20164;-81
2022/01/22 12:33:12;;;;;;;12.55;3.13;;;8.10;99.90;;;;;;5033389;28;20060;-79
2022/01/22 12:35:42;;;;;;;9.43;3.90;;;8.10;99.90;;;;;;5033596;28;20056;-80
2022/01/22 12:38:29;;;;;;;7.50;3.30;;;8.10;99.90;;;;;;5033432;28;20060;-80
2022/01/22 12:44:26;;;;;;;4.05;3.00;;;8.10;99.90;;;;;;5034695;28;20511;-80
2022/01/22 12:46:54;;;;;;;9.82;3.00;;;8.10;99.90;;;;;;5033765;28;20462;-80
2022/01/22 12:49:21;;;;;;;6.35;3.78;;;8.10;99.90;;;;;;5033889;28;20074;-80
2022/01/22 12:51:53;;;;;;;9.43;4.38;;;8.10;99.90;;;;;;5033688;28;20045;-78
2022/01/22 12:54:29;;;;;;;8.68;3.50;;;8.10;99.90;;;;;;5034765;28;20048;-77
2022/01/22 12:57:12;;;;;;;9.45;3.38;;;8.10;99.90;;;;;;5034285;28;20530;-77
2022/01/22 12:59:48;;;;;;;4.05;2.47;;;8.10;99.90;;;;;;5033706;28;20049;-77
2022/01/22 13:02:14;;;;;;;6.65;3.38;;;8.00;99.90;;;;;;5034147;28;20118;-77
2022/01/22 13:04:39;;;;;;;7.68;3.30;;;8.10;99.90;;;;;;5031724;28;20057;-77
2022/01/22 13:07:12;;;;;;;7.32;2.80;;;8.10;99.90;;;;;;5034360;28;20045;-77
2022/01/22 13:09:48;;;;;;;7.00;3.45;;;8.00;99.90;;;;;;5032634;28;20049;-77
2022/01/22 13:12:14;;;;;;;9.27;3.22;;;8.10;99.90;;;;;;5032011;28;20045;-78
2022/01/22 13:14:40;;;;;;;5.30;3.80;;;8.00;99.90;;;;;;5032972;28;20052;-79
2022/01/22 13:17:12;;;;;;;6.22;2.90;;;8.10;99.90;;;;;;5034860;28;20559;-77
2022/01/22 13:19:39;;;;;;;8.43;4.10;;;8.10;99.90;;;;;;5037557;28;20077;-78
2022/01/22 13:22:06;;;;;;;8.30;3.28;;;8.10;99.90;;;;;;5037619;28;20053;-78
2022/01/22 13:24:32;;;;;;;6.60;3.33;;;8.10;99.90;;;;;;5038056;28;20126;-78
2022/01/22 13:27:03;;;;;;;8.27;3.47;;;8.10;99.90;;;;;;5036682;28;20164;-79
2022/01/22 13:29:31;;;;;;;7.40;4.13;;;8.10;99.90;;;;;;5036841;28;20045;-78
2022/01/22 13:31:59;;;;;;;4.32;3.50;;;8.20;99.90;;;;;;5036047;28;20144;-77
2022/01/22 13:34:36;;;;;;;5.57;3.25;;;8.10;99.90;;;;;;5037128;28;20045;-79
2022/01/22 13:47:43;;;;;;;15.40;2.97;;;8.00;99.90;;;;;;5038484;28;20055;-76
2022/01/22 13:48:25;;;;;;;4.63;2.85;;;8.10;99.90;;;;;;5038595;28;20049;-76
2022/01/22 13:50:52;;;;;;;5.00;3.22;;;8.00;99.90;;;;;;5037130;28;20049;-76
2022/01/22 13:53:18;;;;;;;8.43;2.40;;;8.00;99.90;;;;;;5035568;28;20075;-76
2022/01/22 13:56:07;;;;;;;4.57;1.90;;;8.00;99.90;;;;;;5036709;28;20052;-76
2022/01/22 13:58:33;;;;;;;4.13;1.95;;;8.00;99.90;;;;;;5036681;28;20603;-76
2022/01/22 14:01:05;;;;;;;5.25;1.98;;;8.00;99.90;;;;;;5036609;28;20096;-75
2022/01/22 14:03:38;;;;;;;2.55;1.80;;;7.90;99.90;;;;;;5037733;28;20045;-75
2022/01/22 14:06:08;;;;;;;;;;;8.00;99.90;;;;;;5037480;28;20574;-76
2022/01/22 14:08:34;;;;;;;3.85;1.60;;;7.90;99.90;;;;;;5037276;28;20047;-74
2022/01/22 14:11:08;;;;;;;4.00;1.83;;;7.90;99.90;;;;;;5038120;28;20132;-75
2022/01/22 14:13:35;;;;;;;7.15;1.40;;;7.90;99.90;;;;;;5037672;28;20150;-75
2022/01/22 14:16:16;;;;;;;4.28;1.98;;;8.40;99.90;;;;;;5036974;28;20832;-75
2022/01/22 14:18:43;;;;;;;6.25;2.10;;;7.80;99.90;;;;;;5036717;28;20136;-75
2022/01/22 14:21:14;;;;;;;5.05;2.08;;;7.80;99.90;;;;;;5036851;28;20084;-75
2022/01/22 14:23:40;;;;;;;4.75;1.60;;;7.90;99.90;;;;;;5037773;28;20095;-76
2022/01/22 14:26:13;;;;;;;6.93;1.92;;;7.90;99.90;;;;;;5036560;28;20774;-75
2022/01/22 14:28:40;;;;;;;3.53;2.08;;;7.90;99.90;;;;;;5036703;28;20045;-74
2022/01/22 14:31:34;;;;;;;3.88;2.08;;;7.90;99.90;;;;;;5034847;28;20052;-74
2022/01/22 14:34:06;;;;;;;9.38;2.30;;;7.80;99.90;;;;;;5036485;28;20088;-74
2022/01/22 14:36:37;;;;;;;7.47;2.42;;;7.80;99.90;;;;;;5037201;28;20084;-75
2022/01/22 14:44:57;;;;;;;5.80;2.15;;;7.80;99.90;;;;;;5069183;28;20131;-74
2022/01/22 14:47:27;;;;;;;3.10;1.95;;;7.80;99.90;;;;;;5035269;28;20486;-74
2022/01/22 14:50:01;;;;;;;5.63;1.73;;;7.80;99.90;;;;;;5034732;28;20041;-75
2022/01/22 14:52:28;;;;;;;3.65;1.85;;;7.80;99.90;;;;;;5035261;28;20067;-74